Time;durP1;ratioP1;P1;durP2;ratioP2;P2;SDS_P1;SDS_P2;PMS_P1;PMS_P2;Temp;Humidity;BMP_temperature;BMP_pressure;BME280_temperature;BME280_humidity;BME280_pressure;Samples;Min_cycle;Max_cycle;Signal;HPM_P1;HPM_P2
2022/08/17 02:05:00;;;;;;;7.30;6.53;;;;;;;19.91;82.72;99367.09;5010569;28;20041;-90
2022/08/17 02:07:26;;;;;;;8.15;6.65;;;;;;;19.88;82.86;99362.50;4978804;28;20046;-89
2022/08/17 02:09:51;;;;;;;8.18;6.72;;;;;;;19.83;82.79;99368.91;4967254;28;20115;-91
2022/08/17 02:12:17;;;;;;;6.97;6.25;;;;;;;19.90;81.69;99367.59;4973547;28;20172;-90
2022/08/17 02:14:43;;;;;;;7.35;6.65;;;;;;;19.93;80.92;99355.34;4978409;28;20129;-90
2022/08/17 02:17:08;;;;;;;7.88;6.28;;;;;;;19.99;80.28;99358.88;4977351;28;20606;-90
2022/08/17 02:19:34;;;;;;;6.40;5.80;;;;;;;19.95;80.48;99349.94;4995304;28;20136;-90
2022/08/17 02:22:00;;;;;;;7.45;5.80;;;;;;;19.86;81.73;99353.03;4976259;28;20042;-90
2022/08/17 02:24:28;;;;;;;6.97;6.38;;;;;;;19.69;82.57;99357.97;4994950;28;20382;-90
2022/08/17 02:26:54;;;;;;;7.07;6.38;;;;;;;19.55;83.53;99351.34;5009357;28;20052;-90
2022/08/17 02:29:19;;;;;;;8.85;7.07;;;;;;;19.32;84.86;99359.03;4994447;28;20033;-90
2022/08/17 02:31:45;;;;;;;7.50;6.05;;;;;;;19.29;84.87;99360.03;4982302;23;20050;-81
2022/08/17 02:34:11;;;;;;;8.57;6.18;;;;;;;19.31;85.13;99357.50;4991658;28;20054;-81
2022/08/17 02:36:36;;;;;;;6.95;5.97;;;;;;;19.36;84.17;99358.78;4982102;28;20495;-81
2022/08/17 02:39:04;;;;;;;6.65;5.95;;;;;;;19.35;83.85;99363.63;4988084;28;20061;-81
2022/08/17 02:41:30;;;;;;;9.80;6.90;;;;;;;19.29;84.30;99348.81;4977995;28;20375;-81
2022/08/17 02:43:56;;;;;;;6.72;5.82;;;;;;;19.34;83.29;99362.09;4992491;28;20049;-81
2022/08/17 02:46:21;;;;;;;6.20;5.60;;;;;;;19.34;84.57;99362.09;4975210;28;20057;-81
2022/08/17 02:48:47;;;;;;;7.15;6.43;;;;;;;19.42;84.13;99367.97;4991745;28;20118;-81
2022/08/17 02:51:13;;;;;;;7.03;6.18;;;;;;;19.44;83.29;99369.03;4974700;28;20042;-81
2022/08/17 02:53:38;;;;;;;7.97;6.00;;;;;;;19.43;83.32;99367.47;4988919;28;20039;-81
2022/08/17 02:56:04;;;;;;;8.43;6.32;;;;;;;19.44;83.23;99346.53;4990858;28;20045;-82
2022/08/17 02:58:29;;;;;;;7.80;6.35;;;;;;;19.40;83.86;99357.25;4992405;28;20119;-81
2022/08/17 03:00:55;;;;;;;8.60;6.28;;;;;;;19.22;86.07;99362.63;5003759;28;20053;-82
2022/08/17 03:03:21;;;;;;;6.55;5.95;;;;;;;19.10;86.05;99359.81;4981606;28;20049;-82
2022/08/17 03:05:48;;;;;;;8.20;6.10;;;;;;;19.21;84.33;99370.28;4985571;28;20073;-82
2022/08/17 03:08:14;;;;;;;7.95;6.22;;;;;;;19.20;85.23;99351.13;4979185;28;20042;-82
2022/08/17 03:10:40;;;;;;;7.85;6.15;;;;;;;19.22;84.58;99354.94;4985653;28;20093;-82
2022/08/17 03:13:06;;;;;;;6.38;5.80;;;;;;;19.22;84.49;99349.31;4989316;28;20118;-82
2022/08/17 03:15:33;;;;;;;7.00;6.03;;;;;;;19.14;84.87;99359.56;5003707;28;20037;-82
2022/08/17 03:17:59;;;;;;;6.65;6.05;;;;;;;19.12;83.98;99350.13;4991833;28;20045;-82
2022/08/17 03:20:26;;;;;;;6.40;5.80;;;;;;;19.14;83.63;99359.56;4980729;28;20501;-82
2022/08/17 03:22:54;;;;;;;9.27;6.30;;;;;;;19.02;85.66;99358.03;4986406;28;20046;-82
2022/08/17 03:25:25;;;;;;;6.75;5.85;;;;;;;19.05;85.35;99359.81;4993431;28;20078;-82
2022/08/17 03:27:51;;;;;;;7.88;6.22;;;;;;;19.05;84.63;99354.19;4986880;28;20050;-81
2022/08/17 03:30:16;;;;;;;7.35;6.63;;;;;;;19.08;84.43;99368.00;4991213;28;20034;-82
2022/08/17 03:32:45;;;;;;;6.70;6.10;;;;;;;19.09;85.14;99365.94;4991162;28;20544;-82
2022/08/17 03:35:14;;;;;;;7.50;6.20;;;;;;;19.00;87.04;99367.00;4998412;28;20498;-82
2022/08/17 03:37:39;;;;;;;8.27;6.55;;;;;;;18.85;87.40;99362.88;4989340;28;20498;-82
2022/08/17 03:40:06;;;;;;;8.20;6.50;;;;;;;18.79;87.60;99367.72;4991151;28;20045;-82
2022/08/17 03:42:33;;;;;;;7.50;5.72;;;;;;;18.69;87.48;99374.84;4993318;28;20568;-82
2022/08/17 03:45:00;;;;;;;7.00;6.05;;;;;;;18.69;86.56;99377.66;4986546;28;20058;-82
2022/08/17 03:58:23;;;;;;;7.50;6.80;;;;;;;18.34;91.40;99376.03;4981196;28;20038;-82
2022/08/17 04:00:49;;;;;;;9.15;6.25;;;;;;;18.38;90.71;99379.38;4982379;28;20050;-82
2022/08/17 04:03:15;;;;;;;8.15;6.32;;;;;;;18.46;89.42;99386.03;4989445;28;20042;-82
2022/08/17 04:05:40;;;;;;;6.88;6.15;;;;;;;18.48;89.57;99389.09;4992422;28;20053;-82
2022/08/17 04:08:06;;;;;;;8.18;6.85;;;;;;;18.38;89.86;99385.00;4999381;28;20027;-82
2022/08/17 04:10:33;;;;;;;7.32;6.60;;;;;;;18.41;88.80;99383.97;4969785;28;20113;-82
2022/08/17 04:12:58;;;;;;;8.18;6.53;;;;;;;18.41;89.43;99395.19;4991796;28;20038;-82
2022/08/17 04:15:24;;;;;;;7.18;6.18;;;;;;;18.41;89.49;99381.16;4990746;28;20473;-82
2022/08/17 04:17:51;;;;;;;8.88;6.55;;;;;;;18.33;91.32;99387.78;4982423;28;20573;-82
2022/08/17 04:20:18;;;;;;;7.82;6.25;;;;;;;18.24;91.78;99385.22;4988457;28;20038;-82
2022/08/17 04:23:03;;;;;;;9.13;7.22;;;;;;;18.24;92.00;99391.56;4989040;28;20050;-82
2022/08/17 04:25:31;;;;;;;7.60;6.85;;;;;;;18.09;93.64;99391.00;4977318;28;20117;-82
2022/08/17 04:27:57;;;;;;;9.25;7.00;;;;;;;18.12;93.39;99396.38;4986675;28;20054;-82
2022/08/17 04:30:24;;;;;;;9.68;6.88;;;;;;;18.18;92.35;99388.00;4990389;28;20517;-82
2022/08/17 04:32:52;;;;;;;7.45;6.50;;;;;;;18.32;91.27;99392.63;4983656;28;20046;-82
2022/08/17 04:35:24;;;;;;;7.80;7.00;;;;;;;18.37;92.87;99394.69;4987390;28;20038;-82
2022/08/17 04:37:50;;;;;;;9.25;6.95;;;;;;;18.42;92.69;99396.75;4987487;28;20051;-81
2022/08/17 04:43:07;;;;;;;10.02;6.78;;;;;;;18.59;90.38;99405.25;4959220;28;20050;-81
2022/08/17 04:45:33;;;;;;;10.02;7.05;;;;;;;18.36;92.66;99407.19;4986316;28;20042;-81
2022/08/17 04:47:59;;;;;;;8.77;7.10;;;;;;;18.37;92.32;99399.53;4989067;28;20045;-83
2022/08/17 04:50:25;;;;;;;11.07;6.63;;;;;;;18.43;91.72;99406.72;4989161;28;20038;-81
2022/08/17 04:52:50;;;;;;;7.97;6.93;;;;;;;18.47;91.74;99398.81;4972530;28;20077;-79
2022/08/17 04:55:16;;;;;;;8.23;7.25;;;;;;;18.51;92.21;99410.56;4987365;28;20497;-80
2022/08/17 04:57:42;;;;;;;9.10;7.38;;;;;;;18.57;91.69;99402.94;4982427;28;20043;-80
2022/08/17 05:00:09;;;;;;;7.25;6.47;;;;;;;18.75;91.25;99414.97;4989626;28;20046;-82
2022/08/17 05:02:46;;;;;;;8.68;6.63;;;;;;;18.85;90.01;99410.63;4990791;28;20520;-82
2022/08/17 05:05:16;;;;;;;10.02;7.20;;;;;;;19.01;90.42;99412.69;4991552;28;20418;-81
2022/08/17 05:07:41;;;;;;;7.45;6.75;;;;;;;19.11;89.08;99411.19;5013609;23;20081;-81
2022/08/17 05:10:07;;;;;;;7.97;6.90;;;;;;;19.27;89.00;99413.22;5010232;28;20084;-81
2022/08/17 05:12:33;;;;;;;8.02;7.00;;;;;;;19.50;87.79;99409.16;4992350;28;20569;-80
2022/08/17 05:14:58;;;;;;;11.82;7.63;;;;;;;19.63;86.51;99424.72;5011453;28;20081;-81
2022/08/17 05:17:23;;;;;;;9.63;7.03;;;;;;;19.82;85.71;99422.91;5005680;28;20043;-81
2022/08/17 05:19:49;;;;;;;8.63;6.30;;;;;;;20.04;84.20;99420.03;4989010;28;20081;-80
2022/08/17 05:22:14;;;;;;;9.88;6.95;;;;;;;20.16;83.22;99424.34;4989289;28;20031;-80
2022/08/17 05:24:40;;;;;;;9.68;7.25;;;;;;;20.33;81.28;99422.25;5005898;28;20300;-81
2022/08/17 05:27:06;;;;;;;8.80;7.38;;;;;;;20.55;81.09;99420.59;5012962;28;20480;-80
2022/08/17 05:29:31;;;;;;;8.65;6.95;;;;;;;20.76;79.81;99424.56;5012928;28;20100;-80
2022/08/17 05:31:57;;;;;;;8.23;7.03;;;;;;;21.00;77.80;99426.72;5013696;28;20046;-81
2022/08/17 05:34:22;;;;;;;8.13;7.03;;;;;;;21.11;77.53;99426.66;5028132;23;20153;-79
2022/08/17 05:36:48;;;;;;;8.20;6.60;;;;;;;21.28;76.28;99424.47;5014790;28;20089;-81
2022/08/17 05:39:14;;;;;;;10.25;6.65;;;;;;;21.50;75.15;99429.19;5014461;28;20049;-81
2022/08/17 05:41:39;;;;;;;7.20;6.03;;;;;;;21.66;74.09;99414.91;5015181;28;20065;-81
2022/08/17 05:44:05;;;;;;;8.35;6.45;;;;;;;21.90;72.40;99416.97;5014672;28;20048;-80
2022/08/17 05:46:34;;;;;;;11.27;6.95;;;;;;;22.15;71.36;99415.69;5015030;28;20435;-81
2022/08/17 05:49:09;;;;;;;8.60;6.47;;;;;;;22.37;70.23;99419.50;5013379;28;20066;-80
2022/08/17 05:51:54;;;;;;;8.38;6.35;;;;;;;22.58;68.77;99423.34;5013630;28;20048;-88
2022/08/17 05:54:38;;;;;;;7.60;6.45;;;;;;;22.69;68.03;99428.88;5029976;28;20576;-88
2022/08/17 05:57:06;;;;;;;6.85;6.18;;;;;;;22.94;66.75;99426.72;5034400;28;20060;-86
2022/08/17 06:00:10;;;;;;;8.75;6.75;;;;;;;23.18;65.59;99421.69;5033978;28;20041;-87
2022/08/17 06:02:41;;;;;;;9.10;7.00;;;;;;;23.45;64.92;99421.81;5036379;28;20103;-87
2022/08/17 06:05:25;;;;;;;10.65;7.45;;;;;;;23.63;64.73;99429.47;5019298;28;20049;-87
2022/08/17 06:08:09;;;;;;;9.57;7.03;;;;;;;23.90;63.93;99428.19;5017798;28;20038;-82
2022/08/17 06:10:56;;;;;;;9.15;6.95;;;;;;;24.20;63.11;99419.41;5000551;28;20045;-80
2022/08/17 06:13:49;;;;;;;9.70;7.20;;;;;;;24.45;62.26;99425.59;4994051;28;20140;-83
2022/08/17 06:16:23;;;;;;;7.43;6.38;;;;;;;24.68;61.56;99434.34;4961041;28;20108;-80
2022/08/17 06:19:01;;;;;;;11.00;6.50;;;;;;;24.91;60.70;99429.75;4994311;28;20500;-79
2022/08/17 06:21:41;;;;;;;7.32;6.50;;;;;;;24.99;61.43;99425.66;4992895;28;20133;-80
2022/08/17 06:24:20;;;;;;;10.30;6.25;;;;;;;25.21;61.15;99423.59;4996212;28;20462;-81
2022/08/17 06:26:45;;;;;;;7.40;6.60;;;;;;;25.27;61.56;99427.09;5014246;28;20515;-85
2022/08/17 06:29:29;;;;;;;8.38;7.00;;;;;;;25.41;61.18;99437.03;4979689;28;20072;-80
2022/08/17 06:31:56;;;;;;;7.28;6.57;;;;;;;25.58;59.42;99433.81;5014350;28;20483;-80
2022/08/17 06:34:21;;;;;;;11.82;6.68;;;;;;;25.65;59.26;99433.88;5013552;28;20049;-82
2022/08/17 06:37:11;;;;;;;7.35;6.53;;;;;;;25.89;59.37;99441.25;5014436;28;20045;-81
2022/08/17 06:39:43;;;;;;;7.55;6.75;;;;;;;26.12;59.52;99441.41;5013416;28;20042;-80
2022/08/17 06:42:26;;;;;;;9.02;6.90;;;;;;;26.15;59.55;99445.97;5013462;28;20069;-79
2022/08/17 06:45:03;;;;;;;10.52;6.88;;;;;;;26.35;57.23;99436.63;5013261;28;20054;-80
2022/08/17 06:47:56;;;;;;;8.55;7.20;;;;;;;26.33;56.79;99440.03;4996070;28;20050;-79
2022/08/17 06:50:45;;;;;;;8.55;7.32;;;;;;;26.65;56.83;99433.91;4991233;28;20049;-87
2022/08/17 06:53:24;;;;;;;8.57;7.18;;;;;;;26.55;56.33;99449.22;5001852;28;20052;-88
2022/08/17 06:56:05;;;;;;;7.60;6.85;;;;;;;26.93;55.38;99438.78;5017780;28;20050;-88
2022/08/17 06:58:32;;;;;;;12.38;7.30;;;;;;;26.98;56.14;99439.91;5014354;28;20125;-88
2022/08/17 07:01:04;;;;;;;8.70;7.53;;;;;;;26.88;55.57;99434.78;4999502;28;20034;-87
2022/08/17 07:03:37;;;;;;;8.00;6.78;;;;;;;27.39;54.40;99445.31;5014651;28;20065;-88
2022/08/17 07:06:15;;;;;;;13.20;7.45;;;;;;;27.36;54.04;99435.84;5014996;28;20046;-88
2022/08/17 07:08:48;;;;;;;9.85;7.03;;;;;;;27.50;52.62;99439.28;4977438;28;20038;-88
2022/08/17 07:11:18;;;;;;;8.15;7.03;;;;;;;27.52;52.97;99433.78;4997492;28;20072;-89
2022/08/17 07:14:01;;;;;;;9.80;6.70;;;;;;;27.67;52.01;99433.78;4997782;28;20076;-87
2022/08/17 07:16:35;;;;;;;6.78;6.13;;;;;;;27.92;51.60;99436.03;5016757;28;20041;-88
2022/08/17 07:19:00;;;;;;;10.38;6.70;;;;;;;28.33;49.93;99437.69;4990736;28;20044;-88
2022/08/17 07:21:48;;;;;;;9.10;6.53;;;;;;;28.30;48.01;99439.59;5034989;28;20061;-87
2022/08/17 07:24:38;;;;;;;9.45;6.38;;;;;;;28.19;48.79;99440.00;5010881;28;20039;-87
2022/08/17 07:27:26;;;;;;;6.97;6.38;;;;;;;28.76;47.34;99436.59;5018508;28;20061;-89
2022/08/17 07:29:53;;;;;;;8.50;7.05;;;;;;;28.89;48.93;99442.81;4986047;28;20082;-89
2022/08/17 07:32:25;;;;;;;9.48;7.60;;;;;;;28.79;50.38;99439.06;4988612;28;20049;-88
2022/08/17 07:35:09;;;;;;;9.73;7.13;;;;;;;29.17;49.27;99433.88;5010758;28;20053;-87
2022/08/17 07:37:39;;;;;;;9.23;6.68;;;;;;;29.25;48.48;99430.97;5009059;28;20048;-88
2022/08/17 07:40:19;;;;;;;8.50;7.25;;;;;;;29.89;46.75;99437.94;4993285;28;20418;-88
2022/08/17 07:43:06;;;;;;;8.45;6.78;;;;;;;29.65;47.37;99437.34;5010893;28;20076;-87
2022/08/17 07:48:24;;;;;;;7.55;6.53;;;;;;;29.73;47.19;99440.13;4995817;28;20046;-81
2022/08/17 07:50:52;;;;;;;7.22;6.55;;;;;;;29.76;47.07;99435.38;4977162;28;20121;-82
2022/08/17 07:53:22;;;;;;;7.22;6.50;;;;;;;29.76;46.10;99441.84;5010237;28;20488;-82
2022/08/17 07:55:49;;;;;;;9.85;7.30;;;;;;;30.04;45.81;99432.84;5012987;28;20124;-80
2022/08/17 07:58:22;;;;;;;7.25;6.55;;;;;;;29.88;45.10;99442.16;4992635;28;20053;-81
2022/08/17 08:01:03;;;;;;;7.85;7.05;;;;;;;30.07;45.23;99443.09;4993000;28;20446;-80
2022/08/17 08:03:30;;;;;;;7.75;6.40;;;;;;;30.68;43.94;99447.41;5009394;28;20153;-82
2022/08/17 08:06:00;;;;;;;7.38;6.68;;;;;;;31.01;44.06;99445.84;5011681;28;20049;-88
2022/08/17 08:08:29;;;;;;;8.20;6.38;;;;;;;30.85;43.32;99445.28;5011460;28;20092;-87
2022/08/17 08:11:03;;;;;;;7.03;6.32;;;;;;;30.97;44.12;99451.22;4994123;28;20104;-89
2022/08/17 08:13:31;;;;;;;8.73;6.53;;;;;;;31.44;42.51;99450.72;4996817;28;20103;-88
2022/08/17 08:16:27;;;;;;;7.50;6.10;;;;;;;31.63;41.91;99440.69;5013740;28;20047;-88
2022/08/17 08:18:56;;;;;;;8.63;6.20;;;;;;;31.89;40.49;99445.63;5013185;28;20045;-87
2022/08/17 08:21:30;;;;;;;8.00;6.15;;;;;;;31.86;42.69;99443.97;5013379;28;20309;-88
2022/08/17 08:24:03;;;;;;;9.43;5.93;;;;;;;32.18;40.08;99451.44;5018523;28;20557;-88
2022/08/17 08:26:54;;;;;;;7.65;5.78;;;;;;;31.93;40.36;99458.16;5012066;28;21019;-87
2022/08/17 08:29:28;;;;;;;6.35;5.72;;;;;;;31.95;40.01;99454.69;5005669;28;20049;-88
2022/08/17 08:32:31;;;;;;;6.20;5.50;;;;;;;32.25;41.16;99439.06;5011731;28;20042;-88
2022/08/17 08:35:25;;;;;;;8.93;6.07;;;;;;;32.55;39.83;99446.31;4991974;28;20089;-87
2022/08/17 08:38:01;;;;;;;7.28;5.30;;;;;;;32.72;38.35;99443.28;4988400;28;20058;-88
2022/08/17 08:40:30;;;;;;;6.50;5.65;;;;;;;32.66;39.03;99440.00;4975251;28;20139;-86
2022/08/17 08:43:30;;;;;;;7.32;5.38;;;;;;;33.04;39.04;99439.91;5009909;28;20498;-88
2022/08/17 08:45:56;;;;;;;7.32;5.55;;;;;;;33.36;38.60;99440.75;5009545;28;20538;-88
2022/08/17 08:48:31;;;;;;;8.48;5.82;;;;;;;32.67;37.76;99445.13;5009177;28;20038;-87
2022/08/17 08:51:31;;;;;;;8.13;5.70;;;;;;;32.62;39.55;99428.19;4992218;28;20487;-87
2022/08/17 08:54:08;;;;;;;7.57;6.30;;;;;;;32.62;38.34;99436.81;4987169;28;20344;-89
2022/08/17 08:56:44;;;;;;;7.82;5.30;;;;;;;32.52;38.34;99436.03;4991859;28;20056;-89
2022/08/17 08:59:31;;;;;;;7.43;4.82;;;;;;;32.34;37.08;99444.81;4991703;28;20573;-81
2022/08/17 09:02:35;;;;;;;5.55;4.78;;;;;;;32.34;34.80;99441.94;4992298;28;20112;-81
2022/08/17 09:05:06;;;;;;;5.55;5.03;;;;;;;32.71;37.76;99441.81;4991751;28;20148;-80
2022/08/17 09:07:43;;;;;;;9.35;5.15;;;;;;;33.13;37.74;99442.03;5009507;28;20081;-81
2022/08/17 09:10:26;;;;;;;5.32;4.82;;;;;;;33.00;37.28;99445.34;5008964;28;20042;-81
2022/08/17 09:13:15;;;;;;;8.25;4.50;;;;;;;32.94;37.40;99452.78;5006251;28;20684;-81
2022/08/17 09:16:19;;;;;;;5.95;5.00;;;;;;;32.92;38.32;99444.03;4991155;28;20388;-81
2022/08/17 09:18:50;;;;;;;6.45;4.60;;;;;;;33.13;37.67;99447.78;4966760;28;20120;-81
2022/08/17 09:21:37;;;;;;;5.28;4.53;;;;;;;33.25;35.70;99447.88;4991261;28;20049;-89
2022/08/17 09:24:24;;;;;;;7.30;4.28;;;;;;;32.98;35.64;99442.34;4988642;28;20589;-89
2022/08/17 09:27:22;;;;;;;6.65;5.05;;;;;;;33.34;36.19;99441.34;5008705;28;20503;-89
2022/08/17 09:29:50;;;;;;;5.20;4.68;;;;;;;33.18;36.87;99431.59;5008443;28;20046;-91
2022/08/17 09:32:48;;;;;;;6.82;5.07;;;;;;;33.65;37.72;99438.50;4996469;28;20061;-89
2022/08/17 09:35:21;;;;;;;6.63;5.03;;;;;;;34.07;36.23;99427.06;5010653;28;20042;-89
2022/08/17 09:38:09;;;;;;;5.80;4.45;;;;;;;34.07;36.10;99437.81;4997175;28;20100;-89
2022/08/17 09:40:41;;;;;;;6.55;4.70;;;;;;;33.82;36.02;99441.16;5010680;28;20107;-81
2022/08/17 09:43:10;;;;;;;6.10;4.80;;;;;;;33.57;35.42;99443.66;4991450;28;20133;-80
2022/08/17 09:45:50;;;;;;;6.75;6.05;;;;;;;33.44;36.59;99438.44;4976460;28;20018;-80
2022/08/17 09:48:40;;;;;;;6.20;5.00;;;;;;;33.28;36.44;99435.91;5007149;28;20062;-80
2022/08/17 09:51:19;;;;;;;6.90;4.93;;;;;;;33.21;36.90;99436.09;5012894;28;20522;-79
2022/08/17 09:53:44;;;;;;;7.13;4.90;;;;;;;33.32;36.62;99434.72;5027669;28;20150;-80
2022/08/17 09:56:22;;;;;;;5.82;5.25;;;;;;;33.77;34.81;99433.59;5029744;28;20054;-80
2022/08/17 09:59:20;;;;;;;7.63;4.38;;;;;;;33.91;33.64;99436.72;5029854;28;20053;-90
2022/08/17 10:02:27;;;;;;;6.40;4.40;;;;;;;34.12;32.60;99440.34;5029491;28;20083;-88
2022/08/17 10:05:01;;;;;;;7.43;4.35;;;;;;;33.57;30.80;99435.78;5018269;28;20053;-90
2022/08/17 10:07:34;;;;;;;5.60;4.50;;;;;;;33.67;31.31;99435.78;5028628;28;20041;-88
2022/08/17 10:10:10;;;;;;;5.47;4.55;;;;;;;33.69;30.90;99427.28;4997323;28;20045;-89
2022/08/17 10:13:02;;;;;;;5.07;4.28;;;;;;;33.79;31.44;99435.88;5001959;28;20049;-90
2022/08/17 10:15:37;;;;;;;4.90;4.43;;;;;;;33.86;31.07;99429.16;4994696;28;20045;-82
2022/08/17 10:18:11;;;;;;;5.93;4.20;;;;;;;34.44;31.49;99441.03;4996149;28;20050;-89
2022/08/17 10:20:48;;;;;;;7.05;4.45;;;;;;;34.53;31.23;99440.22;5012108;28;20050;-89
2022/08/17 10:26:13;;;;;;;7.40;4.40;;;;;;;34.41;30.20;99442.28;5019286;28;20037;-88
2022/08/17 10:28:47;;;;;;;5.28;4.45;;;;;;;33.61;30.82;99426.69;5034042;28;20034;-90
2022/08/17 10:31:23;;;;;;;7.07;4.47;;;;;;;33.71;31.57;99424.56;5016803;28;20033;-87
2022/08/17 10:34:22;;;;;;;4.85;4.35;;;;;;;34.64;29.94;99416.47;5001322;28;20142;-89
2022/08/17 10:36:56;;;;;;;6.90;4.20;;;;;;;34.91;29.37;99425.44;5033152;28;20040;-87
2022/08/17 10:39:43;;;;;;;5.32;4.40;;;;;;;35.32;28.15;99422.28;5016722;28;20494;-89
2022/08/17 10:42:22;;;;;;;5.78;5.00;;;;;;;35.01;29.63;99429.00;5035554;28;20041;-89
2022/08/17 10:44:55;;;;;;;5.20;4.70;;;;;;;34.83;30.10;99430.69;4979224;28;20042;-89
2022/08/17 10:47:23;;;;;;;7.30;4.70;;;;;;;34.02;30.46;99428.16;4977409;28;20503;-89
2022/08/17 10:49:54;;;;;;;5.78;4.00;;;;;;;34.34;30.16;99431.72;4976948;28;20030;-89
2022/08/17 10:52:26;;;;;;;6.18;4.57;;;;;;;34.30;29.73;99419.94;4994998;28;20156;-88
2022/08/17 10:54:52;;;;;;;6.30;4.45;;;;;;;34.36;30.03;99417.47;4994451;28;20534;-88
2022/08/17 10:57:33;;;;;;;5.93;4.13;;;;;;;34.85;27.48;99416.44;4996631;28;20112;-80
2022/08/17 11:00:14;;;;;;;6.25;4.03;;;;;;;34.88;29.03;99414.44;5032446;28;20119;-80
2022/08/17 11:02:48;;;;;;;5.40;4.43;;;;;;;34.21;29.07;99415.03;4993862;28;20045;-81
2022/08/17 11:05:27;;;;;;;6.03;4.63;;;;;;;34.29;30.90;99418.44;4993312;28;20562;-81
2022/08/17 11:08:11;;;;;;;8.82;4.30;;;;;;;34.56;29.64;99413.06;4993210;28;20039;-81
2022/08/17 11:10:43;;;;;;;7.45;4.30;;;;;;;34.99;28.37;99417.31;4993567;28;20046;-81
2022/08/17 11:13:29;;;;;;;;;;;;;;;35.03;29.00;99403.19;5015534;28;20074;-81
2022/08/17 11:16:05;;;;;;;5.32;4.00;;;;;;;35.50;28.02;99404.00;4983962;28;19976;-81
2022/08/17 11:18:35;;;;;;;6.47;3.92;;;;;;;35.44;28.08;99408.63;5014907;28;20054;-79
2022/08/17 11:21:33;;;;;;;6.78;4.15;;;;;;;34.56;28.64;99410.16;4997059;28;20061;-79
2022/08/17 11:24:21;;;;;;;5.93;4.00;;;;;;;34.18;29.67;99409.13;4995864;28;20057;-81
2022/08/17 11:27:10;;;;;;;5.13;4.20;;;;;;;34.69;29.65;99403.09;5013456;28;20049;-81
2022/08/17 11:29:58;;;;;;;5.47;4.53;;;;;;;35.23;28.41;99402.97;4996091;28;20116;-79
2022/08/17 11:32:35;;;;;;;6.03;4.18;;;;;;;35.28;28.30;99393.19;4997143;28;20109;-80
2022/08/17 11:35:13;;;;;;;4.93;4.10;;;;;;;35.25;28.79;99391.56;5017305;28;20049;-90
2022/08/17 11:37:47;;;;;;;5.72;3.90;;;;;;;35.62;28.28;99383.81;5008182;28;20088;-89
2022/08/17 11:40:19;;;;;;;5.35;4.13;;;;;;;35.62;29.11;99380.91;5037207;28;20049;-89
2022/08/17 11:43:06;;;;;;;4.43;3.60;;;;;;;35.20;27.79;99381.16;5014436;28;20495;-87
2022/08/17 11:46:07;;;;;;;5.80;4.20;;;;;;;35.34;27.74;99387.81;5024289;28;20292;-88
2022/08/17 11:51:34;;;;;;;6.35;4.15;;;;;;;35.49;29.71;99390.19;5037683;28;20135;-88
2022/08/17 11:54:06;;;;;;;6.72;3.90;;;;;;;35.61;27.36;99390.94;5021652;28;20144;-88
2022/08/17 11:56:42;;;;;;;7.15;4.00;;;;;;;35.29;27.30;99386.06;5014744;28;20034;-89
2022/08/17 11:59:38;;;;;;;6.30;3.53;;;;;;;35.44;26.52;99371.88;5000217;28;20046;-89
2022/08/17 12:02:33;;;;;;;7.15;4.20;;;;;;;35.47;26.33;99381.41;4980081;28;20121;-89
2022/08/17 12:05:15;;;;;;;6.10;3.80;;;;;;;35.68;26.65;99378.41;4996276;28;20492;-88
2022/08/17 12:08:13;;;;;;;4.28;3.70;;;;;;;35.75;26.09;99374.50;4978199;28;20054;-89
2022/08/17 12:10:50;;;;;;;7.43;3.95;;;;;;;36.00;26.19;99359.38;4993856;28;20074;-88
2022/08/17 12:13:17;;;;;;;4.85;4.10;;;;;;;35.65;26.59;99367.38;4997609;28;20046;-82
2022/08/17 12:15:47;;;;;;;5.63;3.90;;;;;;;35.79;25.89;99374.75;4978159;28;20081;-80
2022/08/17 12:18:28;;;;;;;6.97;3.80;;;;;;;35.62;26.35;99366.50;4994527;28;20182;-81
2022/08/17 12:21:04;;;;;;;4.70;3.70;;;;;;;35.66;26.19;99368.91;4993993;28;20053;-80
2022/08/17 12:23:49;;;;;;;4.50;3.67;;;;;;;35.60;26.42;99371.38;5010998;28;20507;-80
2022/08/17 12:26:18;;;;;;;4.18;3.38;;;;;;;35.91;25.60;99361.03;5011599;28;20049;-79
2022/08/17 12:28:46;;;;;;;6.30;3.78;;;;;;;35.46;26.16;99379.94;4994329;28;20038;-80
2022/08/17 12:31:19;;;;;;;5.47;4.32;;;;;;;35.01;25.60;99365.59;5030735;28;20068;-80
2022/08/17 12:33:46;;;;;;;6.68;3.70;;;;;;;35.28;25.14;99356.47;5014982;28;20041;-87
2022/08/17 12:36:14;;;;;;;3.80;3.40;;;;;;;35.61;24.81;99344.78;5034457;28;20038;-90
2022/08/17 12:38:49;;;;;;;5.53;3.85;;;;;;;35.65;25.49;99368.13;4997869;28;20042;-90
2022/08/17 12:41:29;;;;;;;3.90;3.42;;;;;;;34.97;25.24;99355.94;5009480;28;20049;-88
2022/08/17 12:43:57;;;;;;;4.30;3.63;;;;;;;34.73;26.18;99358.03;5011397;28;20052;-89
2022/08/17 12:46:22;;;;;;;4.32;3.70;;;;;;;34.84;27.30;99347.91;5010639;28;20466;-87
2022/08/17 12:48:48;;;;;;;4.78;3.72;;;;;;;35.28;26.52;99341.31;5010785;28;20080;-87
2022/08/17 12:51:14;;;;;;;5.88;3.70;;;;;;;35.30;26.61;99342.19;5011486;28;20104;-88
2022/08/17 12:53:44;;;;;;;6.45;3.55;;;;;;;35.57;26.19;99356.09;4977675;28;20125;-88
2022/08/17 12:56:11;;;;;;;5.65;3.80;;;;;;;35.51;25.46;99356.44;4994162;28;20048;-87
2022/08/17 12:58:47;;;;;;;6.22;3.60;;;;;;;35.70;25.59;99335.28;4993804;28;20088;-87
2022/08/17 13:01:14;;;;;;;5.22;3.75;;;;;;;35.54;25.13;99345.81;5008920;28;20096;-88
2022/08/17 13:03:44;;;;;;;6.63;3.55;;;;;;;35.53;24.53;99339.28;4996848;28;20410;-88
2022/08/17 13:06:13;;;;;;;5.00;3.70;;;;;;;35.42;24.73;99334.28;5013471;28;20041;-88
2022/08/17 13:08:47;;;;;;;4.18;3.60;;;;;;;35.74;25.08;99323.97;5013005;28;20046;-88
2022/08/17 13:11:13;;;;;;;5.10;3.65;;;;;;;35.83;24.28;99328.81;5028053;28;20069;-80
2022/08/17 13:13:49;;;;;;;6.90;3.78;;;;;;;35.58;25.25;99346.06;5013805;28;20046;-80
2022/08/17 13:16:21;;;;;;;5.78;3.53;;;;;;;35.35;24.91;99337.41;5010963;28;20129;-79
2022/08/17 13:18:49;;;;;;;3.97;3.50;;;;;;;35.16;25.13;99323.25;5011057;28;20054;-80
2022/08/17 13:21:18;;;;;;;6.55;3.75;;;;;;;35.21;26.08;99331.53;4992771;28;20076;-79
2022/08/17 13:24:08;;;;;;;4.18;3.22;;;;;;;35.23;25.92;99340.31;5010789;28;20095;-80
2022/08/17 13:26:39;;;;;;;4.40;3.33;;;;;;;35.26;25.06;99326.78;5010859;28;20077;-80
2022/08/17 13:29:22;;;;;;;4.60;3.83;;;;;;;35.38;24.90;99316.00;5010964;28;20042;-80
2022/08/17 13:32:07;;;;;;;5.45;3.72;;;;;;;35.71;24.62;99325.22;5010975;28;20041;-80
2022/08/17 13:34:42;;;;;;;4.95;3.53;;;;;;;35.96;24.47;99321.63;5010287;28;20046;-80
2022/08/17 13:37:25;;;;;;;4.60;3.53;;;;;;;35.88;23.81;99310.38;4992497;28;20415;-80
2022/08/17 13:39:53;;;;;;;4.50;3.45;;;;;;;35.37;24.70;99320.25;4992977;28;20073;-80
2022/08/17 13:42:49;;;;;;;5.18;3.45;;;;;;;35.47;25.98;99312.19;5010913;28;20057;-80
2022/08/17 13:45:30;;;;;;;5.22;4.32;;;;;;;35.58;27.06;99322.22;5013133;28;20065;-80
2022/08/17 13:48:13;;;;;;;4.88;3.40;;;;;;;35.63;25.48;99312.47;5013538;28;20038;-87
2022/08/17 13:50:43;;;;;;;5.57;4.25;;;;;;;35.60;26.00;99314.44;4996311;28;20086;-88
2022/08/17 13:53:25;;;;;;;4.40;3.40;;;;;;;35.62;26.43;99305.91;4994832;28;20050;-87
2022/08/17 13:55:59;;;;;;;5.68;3.72;;;;;;;35.53;26.79;99301.03;4995888;28;20512;-89
2022/08/17 13:58:27;;;;;;;8.93;3.90;;;;;;;35.58;27.16;99314.31;4998481;28;20038;-88
2022/08/17 14:00:55;;;;;;;5.72;3.88;;;;;;;35.67;23.80;99307.66;4998602;28;20037;-88
2022/08/17 14:03:20;;;;;;;4.40;3.40;;;;;;;35.57;23.86;99304.16;4996672;28;20049;-89
2022/08/17 14:05:48;;;;;;;4.80;3.30;;;;;;;35.64;22.92;99311.81;5032087;28;20387;-87
2022/08/17 14:08:15;;;;;;;4.88;3.70;;;;;;;35.41;24.34;99321.25;5037735;28;20034;-88
2022/08/17 14:10:42;;;;;;;5.80;3.80;;;;;;;35.54;25.53;99316.97;5018450;28;20108;-87
2022/08/17 14:13:08;;;;;;;8.68;3.80;;;;;;;35.46;25.36;99317.22;5018524;28;20546;-87
2022/08/17 14:15:33;;;;;;;6.13;3.67;;;;;;;35.77;25.15;99316.94;5019628;28;20041;-87
2022/08/17 14:17:59;;;;;;;5.22;3.60;;;;;;;35.90;25.55;99318.41;5016818;28;20132;-89
2022/08/17 14:20:25;;;;;;;6.60;3.90;;;;;;;35.82;25.71;99307.13;5010734;28;20444;-88
2022/08/17 14:22:53;;;;;;;4.82;4.10;;;;;;;36.14;25.92;99307.53;5011092;28;20495;-85
2022/08/17 14:25:23;;;;;;;6.68;3.80;;;;;;;35.87;25.29;99308.84;5009874;28;20034;-85
2022/08/17 14:27:50;;;;;;;4.32;3.80;;;;;;;35.79;25.78;99310.53;4995605;28;20042;-86
2022/08/17 14:30:16;;;;;;;6.80;4.15;;;;;;;35.86;25.81;99306.63;4994726;28;20041;-86
2022/08/17 14:32:42;;;;;;;4.40;4.00;;;;;;;36.01;25.82;99295.25;4995277;28;20044;-90